This is the latest recevied weather packets stored in our database for station/object K4KMJ. If no packets are shown the sender has not sent any weather packets the latest 10 day(s).
| Time | Temp. | Humidity | Pressure | Rain* | Wind** | Luminosity | Snow |
|---|---|---|---|---|---|---|---|
| 1788360910 | 29.44° C | 91% | 1018.5 hPa | 0 mm | - | 684 W/m² | - |
| 1788360605 | 30° C | 90% | 1018.5 hPa | 0 mm | - | 145 W/m² | - |
| 1788360302 | 30° C | 91% | 1018.5 hPa | 0 mm | - | 718 W/m² | - |
| 1788359996 | 28.89° C | 91% | 1018.5 hPa | 0 mm | - | 440 W/m² | - |
| 1788359691 | 29.44° C | 90% | 1018.5 hPa | 0 mm | - | 139 W/m² | - |
| 1788359387 | 30° C | 90% | 1018.2 hPa | 0 mm | - | 695 W/m² | - |
| 1788359083 | 28.89° C | 92% | 1018.4 hPa | 0 mm | - | 636 W/m² | - |
| 1788358777 | 30° C | 91% | 1018.2 hPa | 0 mm | - | 216 W/m² | - |
| 1788358473 | 29.44° C | 92% | 1018.4 hPa | 0 mm | - | 236 W/m² | - |
| 1788358172 | 29.44° C | 92% | 1018.3 hPa | 0 mm | - | 491 W/m² | - |
| 1788357867 | 28.89° C | 93% | 1018.4 hPa | 0 mm | - | 175 W/m² | - |
| 1788357561 | 29.44° C | 93% | 1018.3 hPa | 0 mm | - | 547 W/m² | - |
| 1788357258 | 29.44° C | 92% | 1018.2 hPa | 0 mm | - | 513 W/m² | - |
| 1788356956 | 30° C | 93% | 1018.3 hPa | 0 mm | - | 178 W/m² | - |
| 1788356652 | 28.89° C | 95% | 1018.4 hPa | 0 mm | - | 528 W/m² | - |
| 1788356347 | 28.33° C | 95% | 1018.3 hPa | 0 mm | - | 182 W/m² | - |
| 1788356046 | 28.89° C | 94% | 1018.1 hPa | 0 mm | - | 123 W/m² | - |
| 1788355741 | 28.89° C | 94% | 1018.3 hPa | 0 mm | - | 157 W/m² | - |
| 1788355437 | 30° C | 93% | 1018.1 hPa | 0 mm | - | 132 W/m² | - |
| 1788355132 | 29.44° C | 93% | 1018.3 hPa | 0 mm | - | 210 W/m² | - |
| 1788354829 | 29.44° C | 94% | 1018.3 hPa | 0 mm | - | 253 W/m² | - |
| 1788354528 | 29.44° C | 94% | 1018.3 hPa | 0 mm | - | 226 W/m² | - |
| 1788354224 | 28.89° C | 94% | 1018.3 hPa | 0 mm | - | 222 W/m² | - |
| 1788353918 | 29.44° C | 94% | 1018.2 hPa | 0 mm | - | 199 W/m² | - |
| 1788353615 | 29.44° C | 95% | 1018.3 hPa | 0 mm | - | 190 W/m² | - |
* Rain latest hour (hover to see other rain measurements)
** Current wind speed in m/s (hover to see current wind gust speed)